sensor_id;sensor_type;location;lat;lon;timestamp;temperature;humidity
1417;DHT22;703;51.162;13.574;2023-06-14T00:02:11;13.10;99.90
1417;DHT22;703;51.162;13.574;2023-06-14T00:04:36;13.00;99.90
1417;DHT22;703;51.162;13.574;2023-06-14T00:07:04;12.90;99.90
1417;DHT22;703;51.162;13.574;2023-06-14T00:09:33;12.80;99.90
1417;DHT22;703;51.162;13.574;2023-06-14T00:11:58;12.90;99.90
1417;DHT22;703;51.162;13.574;2023-06-14T00:14:24;12.80;99.90
1417;DHT22;703;51.162;13.574;2023-06-14T00:16:53;12.70;99.90
1417;DHT22;703;51.162;13.574;2023-06-14T00:19:18;12.70;99.90
1417;DHT22;703;51.162;13.574;2023-06-14T00:21:45;12.60;99.90
1417;DHT22;703;51.162;13.574;2023-06-14T00:24:10;12.50;99.90
1417;DHT22;703;51.162;13.574;2023-06-14T00:26:36;12.40;99.90
1417;DHT22;703;51.162;13.574;2023-06-14T00:29:02;12.40;99.90
1417;DHT22;703;51.162;13.574;2023-06-14T00:31:27;12.20;99.90
1417;DHT22;703;51.162;13.574;2023-06-14T00:33:53;12.20;99.90
1417;DHT22;703;51.162;13.574;2023-06-14T00:36:18;12.20;99.90
1417;DHT22;703;51.162;13.574;2023-06-14T00:38:44;12.20;99.90
1417;DHT22;703;51.162;13.574;2023-06-14T00:41:09;12.00;99.90
1417;DHT22;703;51.162;13.574;2023-06-14T00:43:35;12.00;99.90
1417;DHT22;703;51.162;13.574;2023-06-14T00:46:00;12.00;99.90
1417;DHT22;703;51.162;13.574;2023-06-14T00:48:26;12.00;99.90
1417;DHT22;703;51.162;13.574;2023-06-14T00:50:52;11.90;99.90
1417;DHT22;703;51.162;13.574;2023-06-14T00:53:18;11.90;99.90
1417;DHT22;703;51.162;13.574;2023-06-14T00:55:47;11.80;99.90
1417;DHT22;703;51.162;13.574;2023-06-14T00:58:12;11.80;99.90
1417;DHT22;703;51.162;13.574;2023-06-14T01:00:38;11.80;99.90
1417;DHT22;703;51.162;13.574;2023-06-14T01:03:04;11.80;99.90
1417;DHT22;703;51.162;13.574;2023-06-14T01:05:30;11.80;99.90
1417;DHT22;703;51.162;13.574;2023-06-14T01:13:07;11.60;99.90
1417;DHT22;703;51.162;13.574;2023-06-14T01:15:35;11.50;99.90
1417;DHT22;703;51.162;13.574;2023-06-14T01:18:01;11.40;99.90
1417;DHT22;703;51.162;13.574;2023-06-14T01:20:31;11.30;99.90
1417;DHT22;703;51.162;13.574;2023-06-14T01:22:57;11.30;99.90
1417;DHT22;703;51.162;13.574;2023-06-14T01:25:23;11.20;99.90
1417;DHT22;703;51.162;13.574;2023-06-14T01:30:20;11.20;99.90
1417;DHT22;703;51.162;13.574;2023-06-14T01:32:47;11.00;99.90
1417;DHT22;703;51.162;13.574;2023-06-14T01:35:15;11.00;99.90
1417;DHT22;703;51.162;13.574;2023-06-14T01:37:41;10.90;99.90
1417;DHT22;703;51.162;13.574;2023-06-14T01:40:07;10.90;99.90
1417;DHT22;703;51.162;13.574;2023-06-14T01:42:36;10.80;99.90
1417;DHT22;703;51.162;13.574;2023-06-14T01:45:02;10.80;99.90
1417;DHT22;703;51.162;13.574;2023-06-14T01:47:27;10.80;99.90
1417;DHT22;703;51.162;13.574;2023-06-14T01:49:53;10.80;99.90
1417;DHT22;703;51.162;13.574;2023-06-14T01:52:18;10.70;99.90
1417;DHT22;703;51.162;13.574;2023-06-14T01:54:44;10.60;99.90
1417;DHT22;703;51.162;13.574;2023-06-14T01:57:11;10.60;99.90
1417;DHT22;703;51.162;13.574;2023-06-14T01:59:37;10.60;99.90
1417;DHT22;703;51.162;13.574;2023-06-14T02:02:02;10.50;99.90
1417;DHT22;703;51.162;13.574;2023-06-14T02:04:28;10.50;99.90
1417;DHT22;703;51.162;13.574;2023-06-14T02:06:54;10.50;99.90
1417;DHT22;703;51.162;13.574;2023-06-14T02:09:19;10.40;99.90
1417;DHT22;703;51.162;13.574;2023-06-14T02:11:45;10.40;99.90
1417;DHT22;703;51.162;13.574;2023-06-14T02:14:10;10.30;99.90
1417;DHT22;703;51.162;13.574;2023-06-14T02:16:37;10.30;99.90
1417;DHT22;703;51.162;13.574;2023-06-14T02:19:04;10.20;99.90
1417;DHT22;703;51.162;13.574;2023-06-14T02:21:29;10.10;99.90
1417;DHT22;703;51.162;13.574;2023-06-14T02:23:55;10.10;99.90
1417;DHT22;703;51.162;13.574;2023-06-14T02:26:21;10.10;99.90
1417;DHT22;703;51.162;13.574;2023-06-14T02:28:48;10.10;99.90
1417;DHT22;703;51.162;13.574;2023-06-14T02:31:13;10.00;99.90
1417;DHT22;703;51.162;13.574;2023-06-14T02:33:39;9.90;99.90
1417;DHT22;703;51.162;13.574;2023-06-14T02:36:05;9.80;99.90
1417;DHT22;703;51.162;13.574;2023-06-14T02:38:31;9.80;99.90
1417;DHT22;703;51.162;13.574;2023-06-14T02:40:57;9.80;99.90
1417;DHT22;703;51.162;13.574;2023-06-14T02:43:24;9.60;99.90
1417;DHT22;703;51.162;13.574;2023-06-14T02:45:50;9.60;99.90
1417;DHT22;703;51.162;13.574;2023-06-14T02:48:15;9.70;99.90
1417;DHT22;703;51.162;13.574;2023-06-14T02:50:41;9.60;99.90
1417;DHT22;703;51.162;13.574;2023-06-14T02:53:07;9.60;99.90
1417;DHT22;703;51.162;13.574;2023-06-14T02:55:33;9.50;99.90
1417;DHT22;703;51.162;13.574;2023-06-14T02:57:58;9.40;99.90
1417;DHT22;703;51.162;13.574;2023-06-14T03:00:24;9.50;99.90
1417;DHT22;703;51.162;13.574;2023-06-14T03:02:49;9.40;99.90
1417;DHT22;703;51.162;13.574;2023-06-14T03:05:16;9.40;99.90
1417;DHT22;703;51.162;13.574;2023-06-14T03:07:45;9.40;99.90
1417;DHT22;703;51.162;13.574;2023-06-14T03:10:12;7.70;99.90
1417;DHT22;703;51.162;13.574;2023-06-14T03:12:38;9.40;99.90
1417;DHT22;703;51.162;13.574;2023-06-14T03:15:04;9.50;99.90
1417;DHT22;703;51.162;13.574;2023-06-14T03:17:30;9.50;99.90
1417;DHT22;703;51.162;13.574;2023-06-14T03:19:59;9.60;99.90
1417;DHT22;703;51.162;13.574;2023-06-14T03:22:25;9.60;99.90
1417;DHT22;703;51.162;13.574;2023-06-14T03:24:54;9.50;99.90
1417;DHT22;703;51.162;13.574;2023-06-14T03:27:20;9.50;99.90
1417;DHT22;703;51.162;13.574;2023-06-14T03:29:46;9.50;99.90
1417;DHT22;703;51.162;13.574;2023-06-14T03:32:11;9.40;99.90
1417;DHT22;703;51.162;13.574;2023-06-14T03:34:36;9.40;99.90
1417;DHT22;703;51.162;13.574;2023-06-14T03:37:04;9.50;99.90
1417;DHT22;703;51.162;13.574;2023-06-14T03:39:29;9.50;99.90
1417;DHT22;703;51.162;13.574;2023-06-14T03:41:55;9.50;99.90
1417;DHT22;703;51.162;13.574;2023-06-14T03:44:21;9.50;99.90
1417;DHT22;703;51.162;13.574;2023-06-14T03:46:46;9.60;99.90
1417;DHT22;703;51.162;13.574;2023-06-14T03:49:12;9.70;99.90
1417;DHT22;703;51.162;13.574;2023-06-14T03:51:38;9.70;99.90
1417;DHT22;703;51.162;13.574;2023-06-14T03:54:03;9.70;99.90
1417;DHT22;703;51.162;13.574;2023-06-14T03:56:32;9.70;99.90
1417;DHT22;703;51.162;13.574;2023-06-14T03:58:57;9.70;99.90
1417;DHT22;703;51.162;13.574;2023-06-14T04:01:23;9.90;99.90
1417;DHT22;703;51.162;13.574;2023-06-14T04:03:52;9.90;99.90
1417;DHT22;703;51.162;13.574;2023-06-14T04:06:18;9.90;99.90
1417;DHT22;703;51.162;13.574;2023-06-14T04:08:44;9.90;99.90
1417;DHT22;703;51.162;13.574;2023-06-14T04:11:11;10.00;99.90
1417;DHT22;703;51.162;13.574;2023-06-14T04:13:36;10.10;99.90
1417;DHT22;703;51.162;13.574;2023-06-14T04:16:03;10.00;99.90
1417;DHT22;703;51.162;13.574;2023-06-14T04:18:28;10.10;99.90
1417;DHT22;703;51.162;13.574;2023-06-14T04:20:54;10.10;99.90
1417;DHT22;703;51.162;13.574;2023-06-14T04:23:21;10.30;99.90
1417;DHT22;703;51.162;13.574;2023-06-14T04:25:47;10.30;99.90
1417;DHT22;703;51.162;13.574;2023-06-14T04:28:14;10.40;99.90
1417;DHT22;703;51.162;13.574;2023-06-14T04:30:43;10.40;99.90
1417;DHT22;703;51.162;13.574;2023-06-14T04:33:10;10.50;99.90
1417;DHT22;703;51.162;13.574;2023-06-14T04:35:36;10.80;99.90
1417;DHT22;703;51.162;13.574;2023-06-14T04:38:02;10.90;99.90
1417;DHT22;703;51.162;13.574;2023-06-14T04:40:30;11.20;99.90
1417;DHT22;703;51.162;13.574;2023-06-14T04:42:56;11.30;99.90
1417;DHT22;703;51.162;13.574;2023-06-14T04:45:22;11.40;99.90
1417;DHT22;703;51.162;13.574;2023-06-14T04:47:49;11.50;99.90
1417;DHT22;703;51.162;13.574;2023-06-14T04:50:15;11.60;99.90
1417;DHT22;703;51.162;13.574;2023-06-14T04:52:41;11.70;99.90
1417;DHT22;703;51.162;13.574;2023-06-14T04:55:07;11.90;99.90
1417;DHT22;703;51.162;13.574;2023-06-14T04:57:33;11.90;99.90
1417;DHT22;703;51.162;13.574;2023-06-14T05:00:00;11.80;99.90
1417;DHT22;703;51.162;13.574;2023-06-14T05:02:26;12.10;99.90
1417;DHT22;703;51.162;13.574;2023-06-14T05:04:52;12.30;99.90
1417;DHT22;703;51.162;13.574;2023-06-14T05:07:18;12.30;99.90
1417;DHT22;703;51.162;13.574;2023-06-14T05:09:44;12.30;99.90
1417;DHT22;703;51.162;13.574;2023-06-14T05:12:10;12.40;99.90
1417;DHT22;703;51.162;13.574;2023-06-14T05:14:35;12.40;99.90
1417;DHT22;703;51.162;13.574;2023-06-14T05:17:01;12.50;99.90
1417;DHT22;703;51.162;13.574;2023-06-14T05:19:27;12.40;99.90
1417;DHT22;703;51.162;13.574;2023-06-14T05:21:53;12.40;99.90
1417;DHT22;703;51.162;13.574;2023-06-14T05:24:19;12.50;99.90
1417;DHT22;703;51.162;13.574;2023-06-14T05:26:45;12.50;99.90
1417;DHT22;703;51.162;13.574;2023-06-14T05:29:10;12.60;99.90
1417;DHT22;703;51.162;13.574;2023-06-14T05:31:36;12.50;99.90
1417;DHT22;703;51.162;13.574;2023-06-14T05:34:01;12.30;99.90
1417;DHT22;703;51.162;13.574;2023-06-14T05:36:27;12.20;99.90
1417;DHT22;703;51.162;13.574;2023-06-14T05:38:53;12.30;99.90
1417;DHT22;703;51.162;13.574;2023-06-14T05:41:26;12.70;99.90
1417;DHT22;703;51.162;13.574;2023-06-14T05:43:51;12.70;99.90
1417;DHT22;703;51.162;13.574;2023-06-14T05:46:17;12.80;99.90
1417;DHT22;703;51.162;13.574;2023-06-14T05:48:50;13.00;99.90
1417;DHT22;703;51.162;13.574;2023-06-14T05:51:16;13.00;99.90
1417;DHT22;703;51.162;13.574;2023-06-14T05:53:44;12.70;99.90
1417;DHT22;703;51.162;13.574;2023-06-14T05:56:10;12.90;99.90
1417;DHT22;703;51.162;13.574;2023-06-14T05:58:35;13.10;99.90
1417;DHT22;703;51.162;13.574;2023-06-14T06:01:04;13.50;99.90
1417;DHT22;703;51.162;13.574;2023-06-14T06:03:29;13.70;99.90
1417;DHT22;703;51.162;13.574;2023-06-14T06:05:55;13.60;99.90
1417;DHT22;703;51.162;13.574;2023-06-14T06:08:20;14.00;99.90
1417;DHT22;703;51.162;13.574;2023-06-14T06:10:46;14.20;99.90
1417;DHT22;703;51.162;13.574;2023-06-14T06:13:11;14.20;99.90
1417;DHT22;703;51.162;13.574;2023-06-14T06:15:37;14.30;99.90
1417;DHT22;703;51.162;13.574;2023-06-14T06:18:03;14.40;99.90
1417;DHT22;703;51.162;13.574;2023-06-14T06:20:28;14.30;99.90
1417;DHT22;703;51.162;13.574;2023-06-14T06:22:56;14.40;99.90
1417;DHT22;703;51.162;13.574;2023-06-14T06:25:22;14.50;99.90
1417;DHT22;703;51.162;13.574;2023-06-14T06:27:48;14.70;99.90
1417;DHT22;703;51.162;13.574;2023-06-14T06:30:14;14.80;99.90
1417;DHT22;703;51.162;13.574;2023-06-14T06:32:39;14.60;99.90
1417;DHT22;703;51.162;13.574;2023-06-14T06:35:05;14.60;99.90
1417;DHT22;703;51.162;13.574;2023-06-14T06:37:32;14.80;99.90
1417;DHT22;703;51.162;13.574;2023-06-14T06:39:57;14.80;99.90
1417;DHT22;703;51.162;13.574;2023-06-14T06:42:23;15.00;99.90
1417;DHT22;703;51.162;13.574;2023-06-14T06:44:48;15.00;99.90
1417;DHT22;703;51.162;13.574;2023-06-14T06:47:14;14.90;99.90
1417;DHT22;703;51.162;13.574;2023-06-14T06:49:39;15.10;99.90
1417;DHT22;703;51.162;13.574;2023-06-14T06:52:05;15.40;99.90
1417;DHT22;703;51.162;13.574;2023-06-14T06:54:31;15.70;99.90
1417;DHT22;703;51.162;13.574;2023-06-14T06:56:57;15.40;99.90
1417;DHT22;703;51.162;13.574;2023-06-14T06:59:23;15.20;99.90
1417;DHT22;703;51.162;13.574;2023-06-14T07:01:48;15.50;99.90
1417;DHT22;703;51.162;13.574;2023-06-14T07:04:14;16.20;99.90
1417;DHT22;703;51.162;13.574;2023-06-14T07:06:39;16.20;99.90
1417;DHT22;703;51.162;13.574;2023-06-14T07:09:05;16.30;99.90
1417;DHT22;703;51.162;13.574;2023-06-14T07:11:33;16.50;99.90
1417;DHT22;703;51.162;13.574;2023-06-14T07:13:59;16.50;99.90
1417;DHT22;703;51.162;13.574;2023-06-14T07:16:24;16.50;99.90
1417;DHT22;703;51.162;13.574;2023-06-14T07:18:51;16.50;99.90
1417;DHT22;703;51.162;13.574;2023-06-14T07:21:16;16.60;99.90
1417;DHT22;703;51.162;13.574;2023-06-14T07:23:42;17.00;99.90
1417;DHT22;703;51.162;13.574;2023-06-14T07:26:07;17.00;99.90
1417;DHT22;703;51.162;13.574;2023-06-14T07:28:33;16.90;99.90
1417;DHT22;703;51.162;13.574;2023-06-14T07:30:58;17.10;99.90
1417;DHT22;703;51.162;13.574;2023-06-14T07:33:24;17.00;99.90
1417;DHT22;703;51.162;13.574;2023-06-14T07:35:49;17.20;99.90
1417;DHT22;703;51.162;13.574;2023-06-14T07:38:15;17.50;99.90
1417;DHT22;703;51.162;13.574;2023-06-14T07:40:41;17.50;99.90
1417;DHT22;703;51.162;13.574;2023-06-14T07:43:06;17.80;99.90
1417;DHT22;703;51.162;13.574;2023-06-14T07:45:32;18.10;99.90
1417;DHT22;703;51.162;13.574;2023-06-14T07:47:57;18.10;99.90
1417;DHT22;703;51.162;13.574;2023-06-14T07:50:23;18.30;99.90
1417;DHT22;703;51.162;13.574;2023-06-14T07:52:48;18.30;99.90
1417;DHT22;703;51.162;13.574;2023-06-14T07:55:14;18.30;99.90
1417;DHT22;703;51.162;13.574;2023-06-14T07:57:40;17.80;99.90
1417;DHT22;703;51.162;13.574;2023-06-14T08:00:06;17.80;99.90
1417;DHT22;703;51.162;13.574;2023-06-14T08:02:32;17.60;99.90
1417;DHT22;703;51.162;13.574;2023-06-14T08:04:57;18.00;99.90
1417;DHT22;703;51.162;13.574;2023-06-14T08:07:23;18.30;99.90
1417;DHT22;703;51.162;13.574;2023-06-14T08:09:49;18.50;99.90
1417;DHT22;703;51.162;13.574;2023-06-14T08:12:15;18.30;99.90
1417;DHT22;703;51.162;13.574;2023-06-14T08:14:41;18.40;99.90
1417;DHT22;703;51.162;13.574;2023-06-14T08:17:07;18.60;99.90
1417;DHT22;703;51.162;13.574;2023-06-14T08:19:32;18.90;99.90
1417;DHT22;703;51.162;13.574;2023-06-14T08:21:58;19.00;99.90
1417;DHT22;703;51.162;13.574;2023-06-14T08:24:23;19.30;99.90
1417;DHT22;703;51.162;13.574;2023-06-14T08:26:55;19.00;99.90
1417;DHT22;703;51.162;13.574;2023-06-14T08:29:21;19.50;99.90
1417;DHT22;703;51.162;13.574;2023-06-14T08:31:47;19.60;99.90
1417;DHT22;703;51.162;13.574;2023-06-14T08:34:13;19.30;99.90
1417;DHT22;703;51.162;13.574;2023-06-14T08:36:38;19.30;99.90
1417;DHT22;703;51.162;13.574;2023-06-14T08:39:04;19.20;99.90
1417;DHT22;703;51.162;13.574;2023-06-14T08:41:29;19.00;99.90
1417;DHT22;703;51.162;13.574;2023-06-14T08:43:55;19.10;99.90
1417;DHT22;703;51.162;13.574;2023-06-14T08:46:21;19.50;99.90
1417;DHT22;703;51.162;13.574;2023-06-14T08:48:48;19.30;99.90
1417;DHT22;703;51.162;13.574;2023-06-14T08:51:16;19.50;99.90
1417;DHT22;703;51.162;13.574;2023-06-14T08:53:43;19.40;99.90
1417;DHT22;703;51.162;13.574;2023-06-14T08:56:09;18.90;99.90
1417;DHT22;703;51.162;13.574;2023-06-14T08:58:40;19.20;99.90
1417;DHT22;703;51.162;13.574;2023-06-14T09:01:08;19.20;99.90
1417;DHT22;703;51.162;13.574;2023-06-14T09:03:37;19.20;99.90
1417;DHT22;703;51.162;13.574;2023-06-14T09:06:06;20.00;99.90
1417;DHT22;703;51.162;13.574;2023-06-14T09:08:34;20.40;99.90
1417;DHT22;703;51.162;13.574;2023-06-14T09:11:03;20.80;99.90
1417;DHT22;703;51.162;13.574;2023-06-14T09:13:30;20.90;99.90
1417;DHT22;703;51.162;13.574;2023-06-14T09:15:55;20.90;99.90
1417;DHT22;703;51.162;13.574;2023-06-14T09:18:21;20.90;99.90
1417;DHT22;703;51.162;13.574;2023-06-14T09:20:49;20.60;99.90
1417;DHT22;703;51.162;13.574;2023-06-14T09:23:19;20.60;99.90
1417;DHT22;703;51.162;13.574;2023-06-14T09:25:45;21.10;99.90
1417;DHT22;703;51.162;13.574;2023-06-14T09:28:11;21.00;99.90
1417;DHT22;703;51.162;13.574;2023-06-14T09:30:37;21.00;99.90
1417;DHT22;703;51.162;13.574;2023-06-14T09:33:02;20.70;99.90
1417;DHT22;703;51.162;13.574;2023-06-14T09:35:28;20.80;99.90
1417;DHT22;703;51.162;13.574;2023-06-14T09:37:56;21.10;99.90
1417;DHT22;703;51.162;13.574;2023-06-14T09:40:21;21.10;99.90
1417;DHT22;703;51.162;13.574;2023-06-14T09:42:47;20.50;99.90
1417;DHT22;703;51.162;13.574;2023-06-14T09:45:12;20.80;99.90
1417;DHT22;703;51.162;13.574;2023-06-14T09:47:39;20.90;99.90
1417;DHT22;703;51.162;13.574;2023-06-14T09:50:05;20.80;99.90
1417;DHT22;703;51.162;13.574;2023-06-14T09:52:31;21.20;99.90
1417;DHT22;703;51.162;13.574;2023-06-14T09:54:57;21.20;99.90
1417;DHT22;703;51.162;13.574;2023-06-14T09:57:23;21.00;99.90
1417;DHT22;703;51.162;13.574;2023-06-14T09:59:56;20.90;99.90
1417;DHT22;703;51.162;13.574;2023-06-14T10:02:29;20.90;99.90
1417;DHT22;703;51.162;13.574;2023-06-14T10:07:23;20.90;99.90
1417;DHT22;703;51.162;13.574;2023-06-14T10:09:52;20.70;99.90
1417;DHT22;703;51.162;13.574;2023-06-14T10:12:18;21.00;99.90
1417;DHT22;703;51.162;13.574;2023-06-14T10:14:47;20.80;99.90
1417;DHT22;703;51.162;13.574;2023-06-14T10:17:17;21.00;99.90
1417;DHT22;703;51.162;13.574;2023-06-14T10:19:48;21.40;99.90
1417;DHT22;703;51.162;13.574;2023-06-14T10:22:18;21.30;99.90
1417;DHT22;703;51.162;13.574;2023-06-14T10:24:45;21.50;99.90
1417;DHT22;703;51.162;13.574;2023-06-14T10:27:14;21.50;99.90
1417;DHT22;703;51.162;13.574;2023-06-14T10:32:17;20.80;99.90
1417;DHT22;703;51.162;13.574;2023-06-14T10:34:44;21.30;99.90
1417;DHT22;703;51.162;13.574;2023-06-14T10:37:13;21.70;99.90
1417;DHT22;703;51.162;13.574;2023-06-14T10:39:40;22.10;99.90
1417;DHT22;703;51.162;13.574;2023-06-14T10:42:09;22.30;99.90
1417;DHT22;703;51.162;13.574;2023-06-14T10:44:39;22.00;99.90
1417;DHT22;703;51.162;13.574;2023-06-14T10:49:49;22.70;99.90
1417;DHT22;703;51.162;13.574;2023-06-14T10:52:16;22.50;99.90
1417;DHT22;703;51.162;13.574;2023-06-14T10:57:29;23.30;99.90
1417;DHT22;703;51.162;13.574;2023-06-14T10:59:57;22.20;99.90
1417;DHT22;703;51.162;13.574;2023-06-14T11:02:35;21.30;99.90
1417;DHT22;703;51.162;13.574;2023-06-14T11:05:08;21.20;99.90
1417;DHT22;703;51.162;13.574;2023-06-14T11:12:29;21.30;99.90
1417;DHT22;703;51.162;13.574;2023-06-14T11:14:57;21.70;99.90
1417;DHT22;703;51.162;13.574;2023-06-14T11:17:22;22.40;99.90
1417;DHT22;703;51.162;13.574;2023-06-14T11:19:48;21.70;99.90
1417;DHT22;703;51.162;13.574;2023-06-14T11:22:13;20.60;99.90
1417;DHT22;703;51.162;13.574;2023-06-14T11:24:40;20.40;99.90
1417;DHT22;703;51.162;13.574;2023-06-14T11:27:05;20.20;99.90
1417;DHT22;703;51.162;13.574;2023-06-14T11:29:31;20.40;99.90
1417;DHT22;703;51.162;13.574;2023-06-14T11:31:57;20.60;99.90
1417;DHT22;703;51.162;13.574;2023-06-14T11:34:22;20.40;99.90
1417;DHT22;703;51.162;13.574;2023-06-14T11:36:48;20.50;99.90
1417;DHT22;703;51.162;13.574;2023-06-14T11:39:13;20.40;99.90
1417;DHT22;703;51.162;13.574;2023-06-14T11:41:40;20.20;99.90
1417;DHT22;703;51.162;13.574;2023-06-14T11:44:06;20.00;99.90
1417;DHT22;703;51.162;13.574;2023-06-14T11:46:32;20.00;99.90
1417;DHT22;703;51.162;13.574;2023-06-14T11:48:58;19.80;99.90
1417;DHT22;703;51.162;13.574;2023-06-14T11:51:24;20.20;99.90
1417;DHT22;703;51.162;13.574;2023-06-14T11:53:49;20.30;99.90
1417;DHT22;703;51.162;13.574;2023-06-14T11:56:15;20.70;99.90
1417;DHT22;703;51.162;13.574;2023-06-14T11:58:42;21.00;99.90
1417;DHT22;703;51.162;13.574;2023-06-14T12:01:08;20.90;99.90
1417;DHT22;703;51.162;13.574;2023-06-14T12:03:33;21.00;99.90
1417;DHT22;703;51.162;13.574;2023-06-14T12:06:03;21.30;99.90
1417;DHT22;703;51.162;13.574;2023-06-14T12:08:35;21.80;99.90
1417;DHT22;703;51.162;13.574;2023-06-14T12:11:14;21.50;99.90
1417;DHT22;703;51.162;13.574;2023-06-14T12:13:43;21.00;99.90
1417;DHT22;703;51.162;13.574;2023-06-14T12:16:09;21.00;99.90
1417;DHT22;703;51.162;13.574;2023-06-14T12:18:36;20.80;99.90
1417;DHT22;703;51.162;13.574;2023-06-14T12:21:08;20.60;99.90
1417;DHT22;703;51.162;13.574;2023-06-14T12:26:09;21.10;99.90
1417;DHT22;703;51.162;13.574;2023-06-14T12:28:37;21.40;99.90
1417;DHT22;703;51.162;13.574;2023-06-14T12:31:05;20.90;99.90
1417;DHT22;703;51.162;13.574;2023-06-14T12:33:31;20.60;99.90
1417;DHT22;703;51.162;13.574;2023-06-14T12:35:56;20.50;99.90
1417;DHT22;703;51.162;13.574;2023-06-14T12:38:23;20.40;99.90
1417;DHT22;703;51.162;13.574;2023-06-14T12:40:49;20.30;99.90
1417;DHT22;703;51.162;13.574;2023-06-14T12:43:14;20.20;99.90
1417;DHT22;703;51.162;13.574;2023-06-14T12:45:40;20.30;99.90
1417;DHT22;703;51.162;13.574;2023-06-14T12:48:05;20.60;99.90
1417;DHT22;703;51.162;13.574;2023-06-14T12:50:31;20.40;99.90
1417;DHT22;703;51.162;13.574;2023-06-14T12:52:57;20.50;99.90
1417;DHT22;703;51.162;13.574;2023-06-14T12:55:22;20.60;99.90
1417;DHT22;703;51.162;13.574;2023-06-14T12:57:47;21.00;99.90
1417;DHT22;703;51.162;13.574;2023-06-14T13:00:15;20.90;99.90
1417;DHT22;703;51.162;13.574;2023-06-14T13:02:40;20.60;99.90
1417;DHT22;703;51.162;13.574;2023-06-14T13:05:06;21.30;99.90
1417;DHT22;703;51.162;13.574;2023-06-14T13:07:32;21.10;99.90
1417;DHT22;703;51.162;13.574;2023-06-14T13:09:57;21.70;99.90
1417;DHT22;703;51.162;13.574;2023-06-14T13:12:23;22.40;99.90
1417;DHT22;703;51.162;13.574;2023-06-14T13:14:49;22.80;99.90
1417;DHT22;703;51.162;13.574;2023-06-14T13:17:15;22.30;99.90
1417;DHT22;703;51.162;13.574;2023-06-14T13:19:40;22.80;99.90
1417;DHT22;703;51.162;13.574;2023-06-14T13:22:07;23.50;99.90
1417;DHT22;703;51.162;13.574;2023-06-14T13:24:33;23.20;99.90
1417;DHT22;703;51.162;13.574;2023-06-14T13:27:00;22.00;99.90
1417;DHT22;703;51.162;13.574;2023-06-14T13:29:26;21.70;99.90
1417;DHT22;703;51.162;13.574;2023-06-14T13:31:52;22.60;99.90
1417;DHT22;703;51.162;13.574;2023-06-14T13:34:18;22.70;99.90
1417;DHT22;703;51.162;13.574;2023-06-14T13:36:43;23.00;99.90
1417;DHT22;703;51.162;13.574;2023-06-14T13:39:09;23.40;99.90
1417;DHT22;703;51.162;13.574;2023-06-14T13:41:36;24.10;99.90
1417;DHT22;703;51.162;13.574;2023-06-14T13:44:01;23.00;99.90
1417;DHT22;703;51.162;13.574;2023-06-14T13:46:29;23.40;99.90
1417;DHT22;703;51.162;13.574;2023-06-14T13:48:55;23.60;99.90
1417;DHT22;703;51.162;13.574;2023-06-14T13:51:20;23.20;99.90
1417;DHT22;703;51.162;13.574;2023-06-14T13:53:47;23.90;99.90
1417;DHT22;703;51.162;13.574;2023-06-14T13:56:12;24.70;99.90
1417;DHT22;703;51.162;13.574;2023-06-14T13:58:38;24.10;99.90
1417;DHT22;703;51.162;13.574;2023-06-14T14:01:03;24.30;99.90
1417;DHT22;703;51.162;13.574;2023-06-14T14:03:29;24.10;99.90
1417;DHT22;703;51.162;13.574;2023-06-14T14:05:54;23.10;99.90
1417;DHT22;703;51.162;13.574;2023-06-14T14:08:20;22.70;99.90
1417;DHT22;703;51.162;13.574;2023-06-14T14:10:45;22.40;99.90
1417;DHT22;703;51.162;13.574;2023-06-14T14:13:11;22.20;99.90
1417;DHT22;703;51.162;13.574;2023-06-14T14:15:37;22.20;99.90
1417;DHT22;703;51.162;13.574;2023-06-14T14:18:03;22.00;99.90
1417;DHT22;703;51.162;13.574;2023-06-14T14:20:30;22.40;99.90
1417;DHT22;703;51.162;13.574;2023-06-14T14:22:55;21.80;99.90
1417;DHT22;703;51.162;13.574;2023-06-14T14:25:21;23.60;99.90
1417;DHT22;703;51.162;13.574;2023-06-14T14:27:47;24.40;99.90
1417;DHT22;703;51.162;13.574;2023-06-14T14:30:13;23.60;99.90
1417;DHT22;703;51.162;13.574;2023-06-14T14:32:39;22.60;99.90
1417;DHT22;703;51.162;13.574;2023-06-14T14:35:05;22.40;99.90
1417;DHT22;703;51.162;13.574;2023-06-14T14:37:31;22.30;99.90
1417;DHT22;703;51.162;13.574;2023-06-14T14:39:57;22.20;99.90
1417;DHT22;703;51.162;13.574;2023-06-14T14:42:22;22.20;99.90
1417;DHT22;703;51.162;13.574;2023-06-14T14:44:47;22.30;99.90
1417;DHT22;703;51.162;13.574;2023-06-14T14:47:13;22.20;99.90
1417;DHT22;703;51.162;13.574;2023-06-14T14:49:38;22.50;99.90
1417;DHT22;703;51.162;13.574;2023-06-14T14:52:04;22.60;99.90
1417;DHT22;703;51.162;13.574;2023-06-14T14:54:30;22.50;99.90
1417;DHT22;703;51.162;13.574;2023-06-14T14:56:55;22.60;99.90
1417;DHT22;703;51.162;13.574;2023-06-14T14:59:21;23.50;99.90
1417;DHT22;703;51.162;13.574;2023-06-14T15:01:49;24.10;99.90
1417;DHT22;703;51.162;13.574;2023-06-14T15:04:16;23.90;99.90
1417;DHT22;703;51.162;13.574;2023-06-14T15:06:41;23.70;99.90
1417;DHT22;703;51.162;13.574;2023-06-14T15:09:07;23.70;99.90
1417;DHT22;703;51.162;13.574;2023-06-14T15:11:33;23.70;99.90
1417;DHT22;703;51.162;13.574;2023-06-14T15:13:58;23.80;99.90
1417;DHT22;703;51.162;13.574;2023-06-14T15:16:24;23.60;99.90
1417;DHT22;703;51.162;13.574;2023-06-14T15:18:49;24.50;99.90
1417;DHT22;703;51.162;13.574;2023-06-14T15:21:15;24.00;99.90
1417;DHT22;703;51.162;13.574;2023-06-14T15:23:41;24.60;99.90
1417;DHT22;703;51.162;13.574;2023-06-14T15:26:06;23.90;99.90
1417;DHT22;703;51.162;13.574;2023-06-14T15:28:32;23.60;99.90
1417;DHT22;703;51.162;13.574;2023-06-14T15:31:01;22.90;99.90
1417;DHT22;703;51.162;13.574;2023-06-14T15:33:27;22.90;99.90
1417;DHT22;703;51.162;13.574;2023-06-14T15:35:53;22.70;99.90
1417;DHT22;703;51.162;13.574;2023-06-14T15:38:19;22.00;99.90
1417;DHT22;703;51.162;13.574;2023-06-14T15:40:45;22.10;99.90
1417;DHT22;703;51.162;13.574;2023-06-14T15:43:11;22.30;99.90
1417;DHT22;703;51.162;13.574;2023-06-14T15:45:36;22.30;99.90
1417;DHT22;703;51.162;13.574;2023-06-14T15:48:02;22.40;99.90
1417;DHT22;703;51.162;13.574;2023-06-14T15:50:28;22.80;99.90
1417;DHT22;703;51.162;13.574;2023-06-14T15:52:54;22.70;99.90
1417;DHT22;703;51.162;13.574;2023-06-14T15:55:19;23.30;99.90
1417;DHT22;703;51.162;13.574;2023-06-14T15:57:44;23.70;99.90
1417;DHT22;703;51.162;13.574;2023-06-14T16:00:10;23.80;99.90
1417;DHT22;703;51.162;13.574;2023-06-14T16:02:36;23.20;99.90
1417;DHT22;703;51.162;13.574;2023-06-14T16:05:01;23.30;99.90
1417;DHT22;703;51.162;13.574;2023-06-14T16:07:27;23.50;99.90
1417;DHT22;703;51.162;13.574;2023-06-14T16:09:52;23.60;99.90
1417;DHT22;703;51.162;13.574;2023-06-14T16:12:18;23.60;99.90
1417;DHT22;703;51.162;13.574;2023-06-14T16:14:46;23.60;99.90
1417;DHT22;703;51.162;13.574;2023-06-14T16:17:12;23.40;99.90
1417;DHT22;703;51.162;13.574;2023-06-14T16:19:37;23.50;99.90
1417;DHT22;703;51.162;13.574;2023-06-14T16:22:03;23.40;99.90